Latest Weather Observations for Wudinna Airport

IDS60801

Issued at 3:21 pm CST Sunday 15 September 2019 (issued every 10 minutes, with the page automatically refreshed every 10 minutes)

About weather observations | Map of weather stations | Latest weather observations for SA | Other Formats
Station Details ID: 018083 Name: WUDINNA AERO Lat: -33.04 Lon: 135.45 Height: 86.4 m
Data from the previous 72 hours. | See also: Recent months at Wudinna Airport
Date/Time
CST
Temp
°C
App
Temp
°C
Dew
Point
°C
Rel
Hum
%
Delta-T
°C
Wind Press
QNH
hPa
Press
MSL
hPa
Rain since
9am
mm
Dir  Spd
km/h
Gust
km/h
Spd
kts
Gust
kts
15/03:00pm 33.7 27.4 -0.8 11 16.7 WNW 22 30 12 16 1014.6 1014.6 0.0
15/02:30pm 35.0 29.4 -2.6 9 17.9 NW 17 28 9 15 1014.9 1014.9 0.0
15/02:00pm 34.6 28.3 -4.4 8 17.9 WNW 20 33 11 18 1015.2 1015.2 0.0
15/01:30pm 34.2 28.8 -1.7 10 17.2 NNW 17 33 9 18 1015.5 1015.5 0.0
15/01:00pm 33.8 27.0 -2.0 10 17.0 WNW 24 33 13 18 1016.2 1016.2 0.0
15/12:30pm 33.1 26.8 -1.3 11 16.5 WNW 22 32 12 17 1016.5 1016.5 0.0
15/12:00pm 31.7 24.2 -1.2 12 15.6 NW 28 46 15 25 1017.0 1017.0 0.0
15/11:58am 32.7 25.2 -1.6 11 16.3 NW 28 46 15 25 1017.0 1017.0 0.0
15/11:30am 32.2 23.9 -2.0 11 16.1 NW 32 43 17 23 1017.5 1017.5 0.0
15/11:07am 32.0 23.1 -2.1 11 16.0 NW 35 54 19 29 1017.9 1017.9 0.0
15/11:00am 31.9 23.3 -2.2 11 16.0 NW 33 50 18 27 1017.8 1017.8 0.0
15/10:56am 32.0 23.6 -2.1 11 16.0 NW 32 50 17 27 1017.9 1017.9 0.0
15/10:30am 30.8 22.9 -1.9 12 15.2 NNW 30 43 16 23 1017.8 1017.8 0.0
15/10:00am 29.2 21.0 -1.0 14 14.1 NW 32 41 17 22 1018.9 1018.9 0.0
15/09:31am 27.3 17.7 -1.6 15 13.2 NNW 39 57 21 31 1018.6 1018.6 0.0
15/09:30am 27.4 18.2 -1.5 15 13.2 NNW 37 52 20 28 1018.6 1018.6 0.0
15/09:00am 26.9 18.6 -0.2 17 12.6 NNW 33 48 18 26 1018.7 1018.7 0.0
15/08:41am 25.1 17.0 -0.1 19 11.6 NNW 32 50 17 27 1018.9 1018.9 0.0
15/08:30am 25.6 16.9 -0.5 18 12.0 NNW 35 48 19 26 1018.8 1018.8 0.0
15/08:00am 23.8 16.5 0.2 21 10.8 NNW 28 39 15 21 1018.5 1018.5 0.0
15/07:30am 22.8 15.9 0.0 22 10.3 N 26 37 14 20 1018.4 1018.4 0.0
15/07:00am 22.1 14.8 0.0 23 10.0 N 28 35 15 19 1018.0 1018.0 0.0
15/06:30am 21.6 14.6 -0.4 23 9.8 N 26 37 14 20 1017.7 1017.7 0.0
15/06:00am 21.8 14.5 -0.2 23 9.8 N 28 35 15 19 1017.6 1017.6 0.0
15/05:30am 22.4 14.7 -0.3 22 10.2 N 30 39 16 21 1017.6 1017.6 0.0
15/05:00am 22.1 15.6 0.0 23 10.0 N 24 30 13 16 1017.6 1017.6 0.0
15/04:30am 22.7 15.4 -0.1 22 10.3 N 28 35 15 19 1017.5 1017.5 0.0
15/04:00am 22.2 15.3 0.1 23 10.0 N 26 33 14 18 1017.5 1017.5 0.0
15/03:30am 22.4 15.8 -0.3 22 10.2 N 24 32 13 17 1017.4 1017.4 0.0
15/03:00am 22.5 15.5 -0.3 22 10.2 N 26 35 14 19 1017.5 1017.5 0.0
15/02:30am 22.8 15.4 -0.6 21 10.5 N 28 37 15 20 1018.0 1018.0 0.0
15/02:00am 22.7 15.3 -0.7 21 10.5 N 28 37 15 20 1018.2 1018.2 0.0
15/01:30am 23.3 15.5 -0.9 20 10.8 N 30 41 16 22 1018.3 1018.3 0.0
15/01:00am 23.2 15.9 -0.3 21 10.6 N 28 35 15 19 1018.5 1018.5 0.0
15/12:30am 22.3 16.1 -0.4 22 10.2 N 22 30 12 16 1019.0 1019.0 0.0
15/12:00am 22.4 16.6 -0.3 22 10.2 N 20 26 11 14 1019.4 1019.3 0.0
 
Date/Time
CST
Temp
°C
App
Temp
°C
Dew
Point
°C
Rel
Hum
%
Delta-T
°C
Wind Press
QNH
hPa
Press
MSL
hPa
Rain since
9am
mm
Dir  Spd
km/h
Gust
km/h
Spd
kts
Gust
kts
14/11:30pm 19.8 15.5 0.8 28 8.5 NNE 13 15 7 8 1019.5 1019.4 0.0
14/11:00pm 20.8 15.8 1.1 27 9.0 NE 17 19 9 10 1019.8 1019.7 0.0
14/10:30pm 18.5 14.1 2.8 35 7.3 NNE 15 20 8 11 1020.4 1020.3 0.0
14/10:00pm 18.7 15.1 2.9 35 7.3 ENE 11 15 6 8 1021.0 1020.9 0.0
14/09:30pm 21.4 18.6 3.1 30 8.7 E 7 9 4 5 1021.5 1021.4 0.0
14/09:00pm 21.6 18.5 3.8 31 8.6 ESE 9 19 5 10 1021.8 1021.7 0.0
14/08:30pm 21.2 18.0 3.0 30 8.6 NE 9 13 5 7 1021.7 1021.6 0.0
14/08:00pm 21.7 17.8 3.4 30 8.8 NE 13 15 7 8 1021.8 1021.7 0.0
14/07:30pm 21.0 17.5 3.7 32 8.3 NNE 11 13 6 7 1021.7 1021.6 0.0
14/07:00pm 21.8 18.7 3.5 30 8.8 NE 9 13 5 7 1021.5 1021.4 0.0
14/06:30pm 24.8 21.7 3.5 25 10.4 E 9 13 5 7 1021.3 1021.2 0.0
14/06:00pm 26.4 22.2 3.6 23 11.3 SE 15 20 8 11 1021.2 1021.1 0.0
14/05:30pm 27.2 21.3 3.7 22 11.8 S 24 35 13 19 1021.3 1021.2 0.0
14/05:00pm 30.4 25.8 -1.1 13 14.9 WNW 13 17 7 9 1021.1 1021.0 0.0
14/04:30pm 31.1 26.2 -0.5 13 15.1 WNW 15 19 8 10 1021.0 1020.9 0.0
14/04:00pm 32.5 26.3 -0.5 12 16.0 WNW 22 33 12 18 1020.8 1020.7 0.0
14/03:30pm 32.3 26.4 -0.7 12 15.8 NNW 20 32 11 17 1020.8 1020.7 0.0
14/03:00pm 32.6 26.4 -0.5 12 16.0 NNW 22 32 12 17 1021.0 1020.9 0.0
14/02:30pm 32.0 25.3 -0.9 12 15.7 NW 24 32 13 17 1021.5 1021.4 0.0
14/02:00pm 32.2 25.7 0.3 13 15.6 NNW 24 35 13 19 1021.8 1021.7 0.0
14/01:30pm 31.7 24.8 -0.1 13 15.3 NNW 26 35 14 19 1022.2 1022.1 0.0
14/01:00pm 30.8 24.3 0.2 14 14.8 N 24 35 13 19 1022.5 1022.4 0.0
14/12:30pm 31.1 23.9 0.5 14 14.8 NNW 28 37 15 20 1023.0 1022.9 0.0
14/12:00pm 29.7 23.6 0.3 15 14.1 N 22 35 12 19 1023.4 1023.3 0.0
14/11:30am 29.2 22.5 1.7 17 13.4 N 26 37 14 20 1023.7 1023.6 0.0
14/11:00am 28.8 21.7 1.3 17 13.4 N 28 37 15 20 1024.0 1023.9 0.0
14/10:30am 27.9 21.2 1.4 18 12.8 N 26 41 14 22 1024.3 1024.3 0.0
14/10:00am 27.0 20.3 1.4 19 12.3 N 26 37 14 20 1024.7 1024.7 0.0
14/09:30am 25.5 18.8 1.6 21 11.4 N 26 39 14 21 1024.8 1024.8 0.0
14/09:00am 23.6 17.3 1.3 23 10.4 N 24 35 13 19 1025.1 1025.1 0.0
14/08:30am 21.1 14.3 0.9 26 9.2 N 26 35 14 19 1025.2 1025.2 0.0
14/08:00am 20.4 14.4 1.3 28 8.7 NNE 22 30 12 16 1025.1 1025.1 0.0
14/07:30am 19.1 13.7 1.1 30 8.1 NNE 19 28 10 15 1024.9 1024.9 0.0
14/07:00am 15.4 10.3 3.2 44 5.6 NNE 19 24 10 13 1024.7 1024.7 0.0
14/06:48am 11.3 7.6 4.5 63 3.1 NE 13 17 7 9 1024.9 1024.9 0.0
14/06:30am 6.2 3.3 1.5 72 1.9 SSW 6 9 3 5 1024.9 1024.9 0.0
14/06:00am 6.1 3.5 1.2 71 1.9 SSW 4 7 2 4 1025.0 1025.0 0.0
14/05:30am 6.2 4.4 1.1 70 2.0 CALM 0 0 0 0 1024.8 1024.8 0.0
14/05:00am 6.7 4.9 1.4 69 2.1 CALM 0 0 0 0 1024.8 1024.8 0.0
14/04:30am 7.1 5.4 1.6 68 2.2 CALM 0 0 0 0 1024.8 1024.8 0.0
14/04:00am 7.2 4.1 1.3 66 2.4 S 7 9 4 5 1025.0 1025.0 0.0
14/03:30am 7.9 5.8 1.7 65 2.5 E 2 7 1 4 1025.1 1025.1 0.0
14/03:00am 9.4 7.3 2.0 60 3.1 ENE 2 7 1 4 1025.5 1025.5 0.0
14/02:30am 9.4 6.4 2.3 61 3.0 NE 7 11 4 6 1025.8 1025.8 0.0
14/02:00am 9.5 6.7 1.9 59 3.2 ENE 6 9 3 5 1026.3 1026.3 0.0
14/01:30am 10.2 7.1 1.6 55 3.6 NE 7 9 4 5 1026.5 1026.5 0.0
14/01:00am 11.4 8.0 1.6 51 4.2 ENE 9 13 5 7 1026.9 1026.9 0.0
14/12:30am 10.9 8.1 2.2 55 3.7 ENE 6 6 3 3 1027.1 1027.1 0.0
14/12:00am 9.5 5.6 1.2 56 3.4 NNE 11 13 6 7 1027.2 1027.2 0.0
 
Date/Time
CST
Temp
°C
App
Temp
°C
Dew
Point
°C
Rel
Hum
%
Delta-T
°C
Wind Press
QNH
hPa
Press
MSL
hPa
Rain since
9am
mm
Dir  Spd
km/h
Gust
km/h
Spd
kts
Gust
kts
13/11:30pm 9.9 7.0 1.3 55 3.5 ENE 6 7 3 4 1027.5 1027.5 0.0
13/11:00pm 10.4 7.5 1.2 53 3.8 ENE 6 9 3 5 1027.6 1027.6 0.0
13/10:30pm 12.2 9.1 1.2 47 4.6 ENE 7 11 4 6 1027.7 1027.7 0.0
13/10:00pm 13.2 9.7 1.2 44 5.1 NNE 9 15 5 8 1027.6 1027.6 0.0
13/09:30pm 16.6 13.1 1.1 35 6.8 ENE 9 15 5 8 1027.6 1027.6 0.0
13/09:00pm 14.1 11.1 2.0 44 5.3 N 7 9 4 5 1027.7 1027.7 0.0
13/08:30pm 17.3 12.7 1.7 35 7.0 E 15 20 8 11 1027.5 1027.5 0.0
13/08:00pm 18.2 13.8 2.5 35 7.2 E 15 20 8 11 1027.4 1027.4 0.0
13/07:30pm 19.3 14.7 3.5 35 7.4 ESE 17 22 9 12 1027.2 1027.2 0.0
13/07:00pm 20.9 16.1 2.7 30 8.6 SE 17 24 9 13 1026.8 1026.8 0.0
13/06:30pm 22.0 17.9 2.2 27 9.3 SE 13 19 7 10 1026.4 1026.4 0.0
13/06:00pm 23.5 19.4 2.4 25 10.0 SSE 13 19 7 10 1026.1 1026.1 0.0
13/05:30pm 24.8 19.9 1.7 22 10.9 SSE 17 24 9 13 1025.9 1025.9 0.0
13/05:00pm 25.6 20.1 1.7 21 11.4 S 20 30 11 16 1025.7 1025.7 0.0
13/04:30pm 25.8 20.4 1.2 20 11.6 SSE 19 26 10 14 1025.6 1025.6 0.0
13/04:00pm 26.3 21.1 2.3 21 11.7 S 19 30 10 16 1025.4 1025.4 0.0
13/03:30pm 26.2 21.2 3.5 23 11.2 SSE 19 28 10 15 1025.5 1025.5 0.0
13/03:00pm 25.9 20.7 2.6 22 11.3 S 19 30 10 16 1025.4 1025.4 0.0
13/02:30pm 25.2 20.9 3.2 24 10.7 SSE 15 20 8 11 1025.5 1025.5 0.0
13/02:00pm 25.3 21.7 5.0 27 10.3 SSE 13 20 7 11 1026.0 1026.0 0.0
13/01:30pm 24.7 20.3 4.5 27 10.1 S 17 26 9 14 1026.3 1026.3 0.0
13/01:00pm 24.1 19.7 5.0 29 9.6 S 17 22 9 12 1026.8 1026.8 0.0
13/12:30pm 22.6 18.7 5.5 33 8.6 SSE 15 22 8 12 1027.2 1027.2 0.0
13/12:00pm 22.9 19.5 5.8 33 8.6 S 13 22 7 12 1027.6 1027.6 0.0
13/11:30am 21.5 18.3 8.4 43 6.9 S 15 20 8 11 1027.8 1027.8 0.0
13/11:00am 20.0 18.0 8.7 48 5.9 SSE 9 13 5 7 1027.8 1027.8 0.0
13/10:30am 18.0 16.4 8.6 54 4.8 SSE 7 13 4 7 1028.0 1028.0 0.0
13/10:00am 16.8 14.9 9.0 60 4.0 SSE 9 13 5 7 1028.3 1028.3 0.0
13/09:30am 14.4 12.8 8.6 68 2.9 SSE 7 11 4 6 1028.1 1028.1 0.0
13/09:00am 12.4 10.0 8.5 77 1.9 SSE 11 15 6 8 1028.2 1028.2 0.0
13/08:30am 10.6 8.4 7.7 82 1.4 SE 9 13 5 7 1027.8 1027.8 0.0
13/08:00am 8.0 5.1 6.6 91 0.6 SSE 11 13 6 7 1027.5 1027.5 0.0
13/07:30am 6.4 3.7 5.4 93 0.4 S 9 11 5 6 1026.8 1026.8 0.0
13/07:00am 4.7 2.0 3.7 93 0.4 SE 7 9 4 5 1026.4 1026.4 0.0
13/06:30am 4.0 1.2 3.0 93 0.4 NE 7 11 4 6 1026.0 1026.0 0.0
13/06:00am 4.5 1.0 3.5 93 0.4 NE 11 13 6 7 1025.9 1025.9 0.0
13/05:30am 4.9 3.5 3.7 92 0.5 CALM 0 0 0 0 1025.8 1025.8 0.0
13/05:00am 4.9 3.5 3.7 92 0.5 CALM 0 0 0 0 1025.8 1025.8 0.0
13/04:30am 5.0 3.6 3.5 90 0.6 CALM 0 0 0 0 1025.5 1025.5 0.0
13/04:00am 4.3 2.7 2.7 89 0.6 CALM 0 0 0 0 1025.5 1025.5 0.0
13/03:30am 4.9 2.3 3.4 90 0.6 NE 6 7 3 4 1025.4 1025.4 0.0
13/03:00am 4.4 1.6 2.9 90 0.6 NNE 7 9 4 5 1025.4 1025.4 0.0
13/02:30am 4.7 1.9 3.0 89 0.7 NE 7 9 4 5 1025.5 1025.5 0.0
13/02:00am 5.0 2.2 3.3 89 0.7 NNE 7 9 4 5 1025.8 1025.8 0.0
13/01:30am 5.1 2.3 3.1 87 0.8 NE 7 11 4 6 1026.0 1026.0 0.0
13/01:00am 5.9 3.8 3.9 87 0.9 NW 4 7 2 4 1026.2 1026.2 0.0
13/12:30am 6.5 4.1 4.2 85 1.0 NW 6 7 3 4 1026.3 1026.3 0.0
13/12:00am 7.1 4.6 4.6 84 1.1 NW 7 9 4 5 1026.2 1026.2 0.0
 
Date/Time
CST
Temp
°C
App
Temp
°C
Dew
Point
°C
Rel
Hum
%
Delta-T
°C
Wind Press
QNH
hPa
Press
MSL
hPa
Rain since
9am
mm
Dir  Spd
km/h
Gust
km/h
Spd
kts
Gust
kts
12/11:30pm 7.7 6.6 5.0 83 1.2 CALM 0 0 0 0 1026.0 1026.0 0.0
12/11:00pm 8.9 6.8 5.8 81 1.4 NE 6 7 3 4 1025.9 1025.9 0.0
12/10:30pm 11.4 10.3 8.6 83 1.4 SSE 4 7 2 4 1025.8 1025.8 0.0
12/10:00pm 11.4 11.0 8.1 80 1.6 CALM 0 0 0 0 1026.1 1026.1 0.0
12/09:30pm 13.8 12.6 9.6 76 2.1 SSE 6 7 3 4 1026.2 1026.2 0.0
12/09:00pm 14.9 13.7 10.3 74 2.4 SSE 7 11 4 6 1025.8 1025.8 0.0
12/08:30pm 15.8 13.9 10.6 71 2.8 S 11 15 6 8 1025.7 1025.7 0.0
12/08:00pm 17.2 15.1 11.0 67 3.3 S 13 17 7 9 1025.5 1025.5 0.0
12/07:30pm 18.6 15.3 10.9 61 4.2 S 19 24 10 13 1024.6 1024.6 0.0
12/07:00pm 19.6 16.8 10.0 54 5.2 S 15 19 8 10 1024.0 1023.9 0.0
12/06:30pm 21.5 18.2 9.7 47 6.3 S 17 20 9 11 1023.5 1023.4 0.0
12/06:00pm 24.0 20.1 7.2 34 8.8 S 17 24 9 13 1023.3 1023.2 0.0
12/05:30pm 26.2 21.4 2.8 22 11.4 S 17 22 9 12 1022.9 1022.8 0.0
12/05:00pm 27.0 22.4 1.4 19 12.3 S 15 24 8 13 1022.7 1022.6 0.0
12/04:30pm 27.2 22.2 1.6 19 12.3 S 17 26 9 14 1022.7 1022.6 0.0
12/04:00pm 28.0 23.0 1.5 18 12.9 S 17 26 9 14 1022.7 1022.6 0.0
12/03:30pm 27.6 22.7 1.9 19 12.5 S 17 28 9 15 1022.7 1022.6 0.0

Other formats

Comma delimited format used in spreadsheet applications
http://www.bom.gov.au/fwo/IDS60801/IDS60801.95654.axf

JavaScript Object Notation format (JSON) in row-major order
http://www.bom.gov.au/fwo/IDS60801/IDS60801.95654.json

Data quality

Most of these data are generated automatically and are frequently updated. Quality checks on data are not normally performed. It is possible for incorrect values to appear. Refer to information at About Latest Weather Observations and please check the disclaimer before using these data.